sensor_id;sensor_type;location;lat;lon;timestamp;pressure;altitude;pressure_sealevel;temperature;humidity
4590;BME280;2307;48.448;9.216;2024-03-02T00:00:34;94282.16;;;7.86;100.00
4590;BME280;2307;48.448;9.216;2024-03-02T00:03:02;94282.91;;;7.86;100.00
4590;BME280;2307;48.448;9.216;2024-03-02T00:05:28;94292.47;;;7.92;100.00
4590;BME280;2307;48.448;9.216;2024-03-02T00:07:55;94288.59;;;8.00;100.00
4590;BME280;2307;48.448;9.216;2024-03-02T00:10:22;94292.09;;;8.06;100.00
4590;BME280;2307;48.448;9.216;2024-03-02T00:12:53;94289.25;;;8.12;100.00
4590;BME280;2307;48.448;9.216;2024-03-02T00:15:28;94287.75;;;8.16;100.00
4590;BME280;2307;48.448;9.216;2024-03-02T00:17:57;94291.22;;;8.22;100.00
4590;BME280;2307;48.448;9.216;2024-03-02T00:20:26;94292.66;;;8.29;100.00
4590;BME280;2307;48.448;9.216;2024-03-02T00:22:53;94294.25;;;8.30;100.00
4590;BME280;2307;48.448;9.216;2024-03-02T00:25:24;94292.69;;;8.34;100.00
4590;BME280;2307;48.448;9.216;2024-03-02T00:27:50;94294.06;;;8.37;100.00
4590;BME280;2307;48.448;9.216;2024-03-02T00:33:01;94295.22;;;8.24;100.00
4590;BME280;2307;48.448;9.216;2024-03-02T00:35:28;94293.31;;;8.20;100.00
4590;BME280;2307;48.448;9.216;2024-03-02T00:37:55;94296.78;;;8.25;100.00
4590;BME280;2307;48.448;9.216;2024-03-02T00:40:21;94288.19;;;8.30;100.00
4590;BME280;2307;48.448;9.216;2024-03-02T00:42:47;94293.84;;;8.22;100.00
4590;BME280;2307;48.448;9.216;2024-03-02T00:45:14;94293.63;;;8.23;100.00
4590;BME280;2307;48.448;9.216;2024-03-02T00:47:40;94290.38;;;8.16;100.00
4590;BME280;2307;48.448;9.216;2024-03-02T00:50:07;94295.13;;;8.19;100.00
4590;BME280;2307;48.448;9.216;2024-03-02T00:52:35;94298.34;;;8.21;100.00
4590;BME280;2307;48.448;9.216;2024-03-02T00:55:01;94290.38;;;8.16;100.00
4590;BME280;2307;48.448;9.216;2024-03-02T00:57:30;94287.25;;;8.19;100.00
4590;BME280;2307;48.448;9.216;2024-03-02T00:59:59;94286.22;;;8.20;100.00
4590;BME280;2307;48.448;9.216;2024-03-02T01:02:26;94290.13;;;8.18;100.00
4590;BME280;2307;48.448;9.216;2024-03-02T01:04:53;94296.75;;;8.20;100.00
4590;BME280;2307;48.448;9.216;2024-03-02T01:07:19;94285.97;;;8.22;100.00
4590;BME280;2307;48.448;9.216;2024-03-02T01:09:47;94281.25;;;8.24;100.00
4590;BME280;2307;48.448;9.216;2024-03-02T01:12:13;94279.44;;;8.24;100.00
4590;BME280;2307;48.448;9.216;2024-03-02T01:14:40;94274.66;;;8.21;100.00
4590;BME280;2307;48.448;9.216;2024-03-02T01:17:06;94279.84;;;8.16;100.00
4590;BME280;2307;48.448;9.216;2024-03-02T01:19:32;94277.22;;;8.16;100.00
4590;BME280;2307;48.448;9.216;2024-03-02T01:21:59;94267.25;;;8.18;100.00
4590;BME280;2307;48.448;9.216;2024-03-02T01:24:25;94264.03;;;8.11;100.00
4590;BME280;2307;48.448;9.216;2024-03-02T01:26:53;94263.22;;;8.11;100.00
4590;BME280;2307;48.448;9.216;2024-03-02T01:29:19;94260.84;;;8.09;100.00
4590;BME280;2307;48.448;9.216;2024-03-02T01:31:46;94272.34;;;8.03;100.00
4590;BME280;2307;48.448;9.216;2024-03-02T01:34:12;94272.34;;;8.03;100.00
4590;BME280;2307;48.448;9.216;2024-03-02T01:36:39;94272.03;;;7.99;100.00
4590;BME280;2307;48.448;9.216;2024-03-02T01:39:05;94276.03;;;8.02;100.00
4590;BME280;2307;48.448;9.216;2024-03-02T01:41:34;94276.31;;;8.06;100.00
4590;BME280;2307;48.448;9.216;2024-03-02T01:44:02;94277.06;;;8.01;100.00
4590;BME280;2307;48.448;9.216;2024-03-02T01:46:28;94273.63;;;8.00;100.00
4590;BME280;2307;48.448;9.216;2024-03-02T01:48:54;94278.66;;;8.02;100.00
4590;BME280;2307;48.448;9.216;2024-03-02T01:51:21;94279.72;;;8.06;100.00
4590;BME280;2307;48.448;9.216;2024-03-02T01:53:47;94270.78;;;8.02;100.00
4590;BME280;2307;48.448;9.216;2024-03-02T01:56:14;94274.16;;;8.02;100.00
4590;BME280;2307;48.448;9.216;2024-03-02T01:58:40;94261.34;;;8.06;100.00
4590;BME280;2307;48.448;9.216;2024-03-02T02:01:09;94264.91;;;7.95;100.00
4590;BME280;2307;48.448;9.216;2024-03-02T02:03:35;94257.13;;;7.83;100.00
4590;BME280;2307;48.448;9.216;2024-03-02T02:06:02;94274.25;;;7.86;100.00
4590;BME280;2307;48.448;9.216;2024-03-02T02:08:28;94263.97;;;7.84;100.00
4590;BME280;2307;48.448;9.216;2024-03-02T02:10:55;94257.13;;;7.83;100.00
4590;BME280;2307;48.448;9.216;2024-03-02T02:13:21;94254.31;;;7.90;100.00
4590;BME280;2307;48.448;9.216;2024-03-02T02:15:47;94252.56;;;7.95;100.00
4590;BME280;2307;48.448;9.216;2024-03-02T02:18:15;94246.50;;;7.95;100.00
4590;BME280;2307;48.448;9.216;2024-03-02T02:20:42;94251.50;;;7.96;100.00
4590;BME280;2307;48.448;9.216;2024-03-02T02:23:09;94257.50;;;7.92;100.00
4590;BME280;2307;48.448;9.216;2024-03-02T02:25:38;94263.50;;;7.87;100.00
4590;BME280;2307;48.448;9.216;2024-03-02T02:28:04;94268.44;;;7.84;100.00
4590;BME280;2307;48.448;9.216;2024-03-02T02:30:31;94263.19;;;7.84;100.00
4590;BME280;2307;48.448;9.216;2024-03-02T02:32:58;94255.88;;;7.86;100.00
4590;BME280;2307;48.448;9.216;2024-03-02T02:35:24;94263.50;;;7.87;100.00
4590;BME280;2307;48.448;9.216;2024-03-02T02:37:51;94255.28;;;7.84;100.00
4590;BME280;2307;48.448;9.216;2024-03-02T02:40:19;94264.47;;;7.81;100.00
4590;BME280;2307;48.448;9.216;2024-03-02T02:42:46;94246.03;;;7.76;100.00
4590;BME280;2307;48.448;9.216;2024-03-02T02:45:12;94248.66;;;7.76;100.00
4590;BME280;2307;48.448;9.216;2024-03-02T02:47:39;94244.75;;;7.79;100.00
4590;BME280;2307;48.448;9.216;2024-03-02T02:50:06;94241.09;;;7.80;100.00
4590;BME280;2307;48.448;9.216;2024-03-02T02:52:33;94241.00;;;7.75;100.00
4590;BME280;2307;48.448;9.216;2024-03-02T02:55:02;94237.56;;;7.74;100.00
4590;BME280;2307;48.448;9.216;2024-03-02T02:57:30;94232.00;;;7.71;100.00
4590;BME280;2307;48.448;9.216;2024-03-02T03:00:00;94235.69;;;7.70;100.00
4590;BME280;2307;48.448;9.216;2024-03-02T03:02:27;94237.66;;;7.58;100.00
4590;BME280;2307;48.448;9.216;2024-03-02T03:04:54;94235.88;;;7.41;100.00
4590;BME280;2307;48.448;9.216;2024-03-02T03:07:22;94232.19;;;7.42;100.00
4590;BME280;2307;48.448;9.216;2024-03-02T03:09:48;94238.88;;;7.50;100.00
4590;BME280;2307;48.448;9.216;2024-03-02T03:12:15;94225.72;;;7.50;100.00
4590;BME280;2307;48.448;9.216;2024-03-02T03:14:42;94233.44;;;7.35;100.00
4590;BME280;2307;48.448;9.216;2024-03-02T03:17:09;94240.00;;;7.37;100.00
4590;BME280;2307;48.448;9.216;2024-03-02T03:19:35;94235.56;;;7.38;100.00
4590;BME280;2307;48.448;9.216;2024-03-02T03:22:02;94236.59;;;7.37;100.00
4590;BME280;2307;48.448;9.216;2024-03-02T03:24:28;94247.41;;;7.40;100.00
4590;BME280;2307;48.448;9.216;2024-03-02T03:26:55;94241.63;;;7.38;100.00
4590;BME280;2307;48.448;9.216;2024-03-02T03:29:21;94237.44;;;7.42;100.00
4590;BME280;2307;48.448;9.216;2024-03-02T03:31:49;94242.16;;;7.40;100.00
4590;BME280;2307;48.448;9.216;2024-03-02T03:34:15;94236.66;;;7.42;100.00
4590;BME280;2307;48.448;9.216;2024-03-02T03:36:41;94233.16;;;7.36;100.00
4590;BME280;2307;48.448;9.216;2024-03-02T03:39:08;94244.78;;;7.40;100.00
4590;BME280;2307;48.448;9.216;2024-03-02T03:41:34;94235.97;;;7.30;100.00
4590;BME280;2307;48.448;9.216;2024-03-02T03:44:01;94234.94;;;7.31;100.00
4590;BME280;2307;48.448;9.216;2024-03-02T03:46:27;94242.34;;;7.34;100.00
4590;BME280;2307;48.448;9.216;2024-03-02T03:48:55;94243.97;;;7.40;100.00
4590;BME280;2307;48.448;9.216;2024-03-02T03:51:21;94236.84;;;7.35;100.00
4590;BME280;2307;48.448;9.216;2024-03-02T03:53:48;94240.56;;;7.39;100.00
4590;BME280;2307;48.448;9.216;2024-03-02T03:56:14;94239.47;;;7.35;100.00
4590;BME280;2307;48.448;9.216;2024-03-02T03:58:41;94241.63;;;7.38;100.00
4590;BME280;2307;48.448;9.216;2024-03-02T04:01:07;94237.38;;;7.37;100.00
4590;BME280;2307;48.448;9.216;2024-03-02T04:03:34;94239.22;;;7.37;100.00
4590;BME280;2307;48.448;9.216;2024-03-02T04:06:02;94238.81;;;7.45;100.00
4590;BME280;2307;48.448;9.216;2024-03-02T04:08:28;94238.19;;;7.38;100.00
4590;BME280;2307;48.448;9.216;2024-03-02T04:10:54;94241.84;;;7.37;100.00
4590;BME280;2307;48.448;9.216;2024-03-02T04:13:21;94239.47;;;7.35;100.00
4590;BME280;2307;48.448;9.216;2024-03-02T04:15:47;94246.25;;;7.31;100.00
4590;BME280;2307;48.448;9.216;2024-03-02T04:18:14;94238.38;;;7.31;100.00
4590;BME280;2307;48.448;9.216;2024-03-02T04:20:40;94234.44;;;7.34;100.00
4590;BME280;2307;48.448;9.216;2024-03-02T04:23:08;94236.75;;;7.30;100.00
4590;BME280;2307;48.448;9.216;2024-03-02T04:25:35;94233.03;;;7.26;100.00
4590;BME280;2307;48.448;9.216;2024-03-02T04:28:01;94240.91;;;7.26;100.00
4590;BME280;2307;48.448;9.216;2024-03-02T04:30:27;94238.28;;;7.26;100.00
4590;BME280;2307;48.448;9.216;2024-03-02T04:32:54;94240.72;;;7.33;100.00
4590;BME280;2307;48.448;9.216;2024-03-02T04:35:20;94252.84;;;7.34;100.00
4590;BME280;2307;48.448;9.216;2024-03-02T04:37:46;94253.09;;;7.32;100.00
4590;BME280;2307;48.448;9.216;2024-03-02T04:40:14;94249.41;;;7.33;100.00
4590;BME280;2307;48.448;9.216;2024-03-02T04:42:41;94249.09;;;7.30;100.00
4590;BME280;2307;48.448;9.216;2024-03-02T04:45:08;94248.25;;;7.24;100.00
4590;BME280;2307;48.448;9.216;2024-03-02T04:47:34;94252.94;;;7.22;100.00
4590;BME280;2307;48.448;9.216;2024-03-02T04:50:01;94238.72;;;7.18;100.00
4590;BME280;2307;48.448;9.216;2024-03-02T04:52:27;94237.09;;;7.17;100.00
4590;BME280;2307;48.448;9.216;2024-03-02T04:54:54;94241.28;;;7.13;100.00
4590;BME280;2307;48.448;9.216;2024-03-02T04:57:46;94242.53;;;7.11;100.00
4590;BME280;2307;48.448;9.216;2024-03-02T05:00:13;94246.69;;;7.07;100.00
4590;BME280;2307;48.448;9.216;2024-03-02T05:02:39;94244.38;;;7.10;100.00
4590;BME280;2307;48.448;9.216;2024-03-02T05:05:06;94252.25;;;7.10;100.00
4590;BME280;2307;48.448;9.216;2024-03-02T05:07:32;94240.31;;;7.03;100.00
4590;BME280;2307;48.448;9.216;2024-03-02T05:09:58;94242.69;;;7.04;100.00
4590;BME280;2307;48.448;9.216;2024-03-02T05:12:25;94240.53;;;7.01;100.00
4590;BME280;2307;48.448;9.216;2024-03-02T05:15:23;94239.84;;;7.06;100.00
4590;BME280;2307;48.448;9.216;2024-03-02T05:17:49;94242.22;;;7.07;100.00
4590;BME280;2307;48.448;9.216;2024-03-02T05:20:16;94248.56;;;7.11;100.00
4590;BME280;2307;48.448;9.216;2024-03-02T05:22:42;94250.88;;;7.08;100.00
4590;BME280;2307;48.448;9.216;2024-03-02T05:25:08;94257.03;;;7.13;100.00
4590;BME280;2307;48.448;9.216;2024-03-02T05:27:35;94265.59;;;7.09;100.00
4590;BME280;2307;48.448;9.216;2024-03-02T05:30:02;94261.63;;;7.06;100.00
4590;BME280;2307;48.448;9.216;2024-03-02T05:32:32;94252.66;;;7.02;100.00
4590;BME280;2307;48.448;9.216;2024-03-02T05:34:59;94253.19;;;7.04;100.00
4590;BME280;2307;48.448;9.216;2024-03-02T05:37:25;94264.50;;;7.05;100.00
4590;BME280;2307;48.448;9.216;2024-03-02T05:39:51;94259.34;;;7.10;100.00
4590;BME280;2307;48.448;9.216;2024-03-02T05:42:18;94257.41;;;7.05;100.00
4590;BME280;2307;48.448;9.216;2024-03-02T05:44:44;94254.00;;;7.05;100.00
4590;BME280;2307;48.448;9.216;2024-03-02T05:47:10;94252.00;;;6.95;100.00
4590;BME280;2307;48.448;9.216;2024-03-02T05:49:38;94262.34;;;6.85;100.00
4590;BME280;2307;48.448;9.216;2024-03-02T05:52:05;94255.13;;;6.92;100.00
4590;BME280;2307;48.448;9.216;2024-03-02T05:54:31;94258.78;;;6.91;100.00
4590;BME280;2307;48.448;9.216;2024-03-02T05:56:58;94254.63;;;6.95;100.00
4590;BME280;2307;48.448;9.216;2024-03-02T05:59:41;94261.41;;;6.91;100.00
4590;BME280;2307;48.448;9.216;2024-03-02T06:02:07;94260.38;;;6.92;100.00
4590;BME280;2307;48.448;9.216;2024-03-02T06:04:34;94264.59;;;6.93;100.00
4590;BME280;2307;48.448;9.216;2024-03-02T06:07:02;94259.28;;;6.88;100.00
4590;BME280;2307;48.448;9.216;2024-03-02T06:09:28;94264.19;;;6.84;100.00
4590;BME280;2307;48.448;9.216;2024-03-02T06:11:54;94260.19;;;6.82;100.00
4590;BME280;2307;48.448;9.216;2024-03-02T06:14:21;94271.75;;;6.81;100.00
4590;BME280;2307;48.448;9.216;2024-03-02T06:16:47;94273.03;;;6.78;100.00
4590;BME280;2307;48.448;9.216;2024-03-02T06:19:13;94270.16;;;6.80;100.00
4590;BME280;2307;48.448;9.216;2024-03-02T06:21:40;94274.13;;;6.82;100.00
4590;BME280;2307;48.448;9.216;2024-03-02T06:24:08;94274.91;;;6.83;100.00
4590;BME280;2307;48.448;9.216;2024-03-02T06:26:34;94272.63;;;6.86;100.00
4590;BME280;2307;48.448;9.216;2024-03-02T06:29:00;94278.19;;;6.90;100.00
4590;BME280;2307;48.448;9.216;2024-03-02T06:31:27;94281.84;;;6.89;100.00
4590;BME280;2307;48.448;9.216;2024-03-02T06:33:55;94275.63;;;6.95;100.00
4590;BME280;2307;48.448;9.216;2024-03-02T06:36:21;94282.25;;;6.98;100.00
4590;BME280;2307;48.448;9.216;2024-03-02T06:38:48;94285.50;;;6.88;100.00
4590;BME280;2307;48.448;9.216;2024-03-02T06:41:16;94282.97;;;6.93;100.00
4590;BME280;2307;48.448;9.216;2024-03-02T06:43:42;94285.66;;;6.98;100.00
4590;BME280;2307;48.448;9.216;2024-03-02T06:46:08;94286.78;;;7.02;100.00
4590;BME280;2307;48.448;9.216;2024-03-02T06:48:35;94290.50;;;7.06;100.00
4590;BME280;2307;48.448;9.216;2024-03-02T06:51:01;94287.09;;;7.06;100.00
4590;BME280;2307;48.448;9.216;2024-03-02T06:53:28;94276.09;;;7.09;100.00
4590;BME280;2307;48.448;9.216;2024-03-02T06:55:55;94275.41;;;7.13;100.00
4590;BME280;2307;48.448;9.216;2024-03-02T06:58:22;94284.63;;;7.16;100.00
4590;BME280;2307;48.448;9.216;2024-03-02T07:00:49;94276.56;;;7.22;100.00
4590;BME280;2307;48.448;9.216;2024-03-02T07:03:16;94280.72;;;7.18;100.00
4590;BME280;2307;48.448;9.216;2024-03-02T07:05:41;94283.88;;;7.20;100.00
4590;BME280;2307;48.448;9.216;2024-03-02T07:08:08;94281.88;;;7.27;100.00
4590;BME280;2307;48.448;9.216;2024-03-02T07:10:34;94281.41;;;7.30;100.00
4590;BME280;2307;48.448;9.216;2024-03-02T07:13:00;94281.50;;;7.35;100.00
4590;BME280;2307;48.448;9.216;2024-03-02T07:15:28;94295.16;;;7.37;100.00
4590;BME280;2307;48.448;9.216;2024-03-02T07:18:09;94279.41;;;7.37;100.00
4590;BME280;2307;48.448;9.216;2024-03-02T07:20:35;94291.50;;;7.38;100.00
4590;BME280;2307;48.448;9.216;2024-03-02T07:23:04;94286.56;;;7.42;100.00
4590;BME280;2307;48.448;9.216;2024-03-02T07:25:31;94288.94;;;7.43;100.00
4590;BME280;2307;48.448;9.216;2024-03-02T07:27:57;94291.34;;;7.45;100.00
4590;BME280;2307;48.448;9.216;2024-03-02T07:30:23;94291.88;;;7.47;100.00
4590;BME280;2307;48.448;9.216;2024-03-02T07:32:51;94293.72;;;7.46;100.00
4590;BME280;2307;48.448;9.216;2024-03-02T07:35:17;94292.91;;;7.46;100.00
4590;BME280;2307;48.448;9.216;2024-03-02T07:37:44;94294.75;;;7.45;100.00
4590;BME280;2307;48.448;9.216;2024-03-02T07:40:11;94297.69;;;7.49;100.00
4590;BME280;2307;48.448;9.216;2024-03-02T07:42:37;94291.16;;;7.52;100.00
4590;BME280;2307;48.448;9.216;2024-03-02T07:45:05;94293.22;;;7.49;100.00
4590;BME280;2307;48.448;9.216;2024-03-02T07:47:31;94296.41;;;7.52;100.00
4590;BME280;2307;48.448;9.216;2024-03-02T07:49:59;94288.72;;;7.45;100.00
4590;BME280;2307;48.448;9.216;2024-03-02T07:52:26;94292.69;;;7.47;100.00
4590;BME280;2307;48.448;9.216;2024-03-02T07:54:52;94289.63;;;7.56;100.00
4590;BME280;2307;48.448;9.216;2024-03-02T07:57:19;94288.91;;;7.60;100.00
4590;BME280;2307;48.448;9.216;2024-03-02T07:59:45;94281.88;;;7.66;100.00
4590;BME280;2307;48.448;9.216;2024-03-02T08:02:12;94277.75;;;7.70;100.00
4590;BME280;2307;48.448;9.216;2024-03-02T08:04:38;94271.69;;;7.69;100.00
4590;BME280;2307;48.448;9.216;2024-03-02T08:07:06;94268.63;;;7.77;100.00
4590;BME280;2307;48.448;9.216;2024-03-02T08:09:34;94270.47;;;7.77;100.00
4590;BME280;2307;48.448;9.216;2024-03-02T08:12:00;94275.78;;;7.82;100.00
4590;BME280;2307;48.448;9.216;2024-03-02T08:14:27;94275.00;;;7.81;100.00
4590;BME280;2307;48.448;9.216;2024-03-02T08:16:53;94276.91;;;7.86;100.00
4590;BME280;2307;48.448;9.216;2024-03-02T08:19:19;94285.31;;;7.88;100.00
4590;BME280;2307;48.448;9.216;2024-03-02T08:21:46;94281.16;;;7.92;100.00
4590;BME280;2307;48.448;9.216;2024-03-02T08:24:14;94277.47;;;7.93;100.00
4590;BME280;2307;48.448;9.216;2024-03-02T08:26:40;94275.97;;;7.97;100.00
4590;BME280;2307;48.448;9.216;2024-03-02T08:29:07;94276.44;;;7.94;100.00
4590;BME280;2307;48.448;9.216;2024-03-02T08:31:33;94278.59;;;7.97;100.00
4590;BME280;2307;48.448;9.216;2024-03-02T08:33:59;94279.06;;;7.94;100.00
4590;BME280;2307;48.448;9.216;2024-03-02T08:36:26;94268.88;;;7.97;100.00
4590;BME280;2307;48.448;9.216;2024-03-02T08:38:52;94281.28;;;8.02;100.00
4590;BME280;2307;48.448;9.216;2024-03-02T08:41:20;94271.06;;;8.06;100.00
4590;BME280;2307;48.448;9.216;2024-03-02T08:43:46;94280.31;;;8.08;100.00
4590;BME280;2307;48.448;9.216;2024-03-02T08:46:13;94278.22;;;8.10;100.00
4590;BME280;2307;48.448;9.216;2024-03-02T08:48:39;94280.59;;;8.12;100.00
4590;BME280;2307;48.448;9.216;2024-03-02T08:51:05;94276.91;;;8.13;100.00
4590;BME280;2307;48.448;9.216;2024-03-02T08:53:33;94281.38;;;8.12;100.00
4590;BME280;2307;48.448;9.216;2024-03-02T08:55:59;94277.47;;;8.15;100.00
4590;BME280;2307;48.448;9.216;2024-03-02T08:58:27;94283.50;;;8.15;100.00
4590;BME280;2307;48.448;9.216;2024-03-02T09:00:53;94287.25;;;8.19;100.00
4590;BME280;2307;48.448;9.216;2024-03-02T09:03:20;94287.31;;;8.24;100.00
4590;BME280;2307;48.448;9.216;2024-03-02T09:05:46;94282.59;;;8.26;100.00
4590;BME280;2307;48.448;9.216;2024-03-02T09:08:13;94285.56;;;8.30;100.00
4590;BME280;2307;48.448;9.216;2024-03-02T09:10:39;94282.66;;;8.31;100.00
4590;BME280;2307;48.448;9.216;2024-03-02T09:13:06;94286.41;;;8.35;100.00
4590;BME280;2307;48.448;9.216;2024-03-02T09:15:34;94291.66;;;8.35;100.00
4590;BME280;2307;48.448;9.216;2024-03-02T09:18:02;94284.91;;;8.44;100.00
4590;BME280;2307;48.448;9.216;2024-03-02T09:20:29;94278.34;;;8.47;100.00
4590;BME280;2307;48.448;9.216;2024-03-02T09:22:55;94282.88;;;8.51;100.00
4590;BME280;2307;48.448;9.216;2024-03-02T09:25:21;94280.56;;;8.55;100.00
4590;BME280;2307;48.448;9.216;2024-03-02T09:27:48;94283.47;;;8.59;100.00
4590;BME280;2307;48.448;9.216;2024-03-02T09:30:14;94271.16;;;8.64;100.00
4590;BME280;2307;48.448;9.216;2024-03-02T09:32:42;94281.47;;;8.71;100.00
4590;BME280;2307;48.448;9.216;2024-03-02T09:35:08;94275.44;;;8.75;100.00
4590;BME280;2307;48.448;9.216;2024-03-02T09:37:35;94268.91;;;8.78;100.00
4590;BME280;2307;48.448;9.216;2024-03-02T09:40:01;94266.00;;;8.79;100.00
4590;BME280;2307;48.448;9.216;2024-03-02T09:42:28;94270.53;;;8.84;100.00
4590;BME280;2307;48.448;9.216;2024-03-02T09:44:55;94266.91;;;8.90;100.00
4590;BME280;2307;48.448;9.216;2024-03-02T09:47:22;94259.03;;;8.95;100.00
4590;BME280;2307;48.448;9.216;2024-03-02T09:49:50;94253.75;;;8.95;100.00
4590;BME280;2307;48.448;9.216;2024-03-02T09:52:16;94251.19;;;9.00;100.00
4590;BME280;2307;48.448;9.216;2024-03-02T09:54:42;94240.16;;;9.08;100.00
4590;BME280;2307;48.448;9.216;2024-03-02T09:57:09;94238.13;;;9.15;100.00
4590;BME280;2307;48.448;9.216;2024-03-02T09:59:35;94233.66;;;9.21;100.00
4590;BME280;2307;48.448;9.216;2024-03-02T10:02:02;94233.47;;;9.32;100.00
4590;BME280;2307;48.448;9.216;2024-03-02T10:04:29;94234.53;;;9.36;100.00
4590;BME280;2307;48.448;9.216;2024-03-02T10:07:10;94228.53;;;9.41;100.00
4590;BME280;2307;48.448;9.216;2024-03-02T10:09:37;94224.63;;;9.53;100.00
4590;BME280;2307;48.448;9.216;2024-03-02T10:12:04;94231.56;;;9.70;100.00
4590;BME280;2307;48.448;9.216;2024-03-02T10:14:31;94220.31;;;9.94;100.00
4590;BME280;2307;48.448;9.216;2024-03-02T10:17:01;94224.81;;;10.04;100.00
4590;BME280;2307;48.448;9.216;2024-03-02T10:19:28;94220.41;;;10.15;100.00
4590;BME280;2307;48.448;9.216;2024-03-02T10:21:57;94226.47;;;10.25;100.00
4590;BME280;2307;48.448;9.216;2024-03-02T10:24:25;94219.38;;;10.31;100.00
4590;BME280;2307;48.448;9.216;2024-03-02T10:26:52;94225.47;;;10.46;100.00
4590;BME280;2307;48.448;9.216;2024-03-02T10:29:18;94220.19;;;10.51;100.00
4590;BME280;2307;48.448;9.216;2024-03-02T10:31:45;94223.91;;;10.60;100.00
4590;BME280;2307;48.448;9.216;2024-03-02T10:34:12;94218.63;;;10.71;100.00
4590;BME280;2307;48.448;9.216;2024-03-02T10:36:40;94223.91;;;10.81;100.00
4590;BME280;2307;48.448;9.216;2024-03-02T10:39:07;94218.09;;;10.94;100.00
4590;BME280;2307;48.448;9.216;2024-03-02T10:41:36;94220.47;;;11.05;100.00
4590;BME280;2307;48.448;9.216;2024-03-02T10:44:02;94218.06;;;11.14;100.00
4590;BME280;2307;48.448;9.216;2024-03-02T10:46:29;94212.75;;;11.29;97.57
4590;BME280;2307;48.448;9.216;2024-03-02T10:48:56;94209.56;;;11.37;94.02
4590;BME280;2307;48.448;9.216;2024-03-02T10:51:24;94201.59;;;11.57;95.83
4590;BME280;2307;48.448;9.216;2024-03-02T10:53:50;94195.72;;;11.76;94.43
4590;BME280;2307;48.448;9.216;2024-03-02T10:56:19;94192.81;;;11.77;89.50
4590;BME280;2307;48.448;9.216;2024-03-02T10:58:50;94194.63;;;11.87;92.06
4590;BME280;2307;48.448;9.216;2024-03-02T11:01:17;94194.53;;;12.07;89.77
4590;BME280;2307;48.448;9.216;2024-03-02T11:03:44;94191.00;;;12.21;86.50
4590;BME280;2307;48.448;9.216;2024-03-02T11:06:10;94187.38;;;12.46;89.90
4590;BME280;2307;48.448;9.216;2024-03-02T11:08:38;94184.16;;;12.54;92.96
4590;BME280;2307;48.448;9.216;2024-03-02T11:11:06;94182.00;;;12.61;94.92
4590;BME280;2307;48.448;9.216;2024-03-02T11:13:34;94182.75;;;12.67;84.25
4590;BME280;2307;48.448;9.216;2024-03-02T11:16:03;94177.41;;;12.72;84.16
4590;BME280;2307;48.448;9.216;2024-03-02T11:18:30;94178.34;;;12.86;87.17
4590;BME280;2307;48.448;9.216;2024-03-02T11:20:57;94164.69;;;13.03;90.30
4590;BME280;2307;48.448;9.216;2024-03-02T11:23:31;94169.94;;;13.08;86.76
4590;BME280;2307;48.448;9.216;2024-03-02T11:26:12;94164.50;;;13.23;81.54
4590;BME280;2307;48.448;9.216;2024-03-02T11:28:43;94164.88;;;13.40;82.63
4590;BME280;2307;48.448;9.216;2024-03-02T11:31:10;94169.16;;;13.60;83.90
4590;BME280;2307;48.448;9.216;2024-03-02T11:33:37;94161.38;;;13.68;81.84
4590;BME280;2307;48.448;9.216;2024-03-02T11:36:04;94163.25;;;13.87;76.29
4590;BME280;2307;48.448;9.216;2024-03-02T11:38:32;94154.31;;;14.01;77.80
4590;BME280;2307;48.448;9.216;2024-03-02T11:40:59;94146.41;;;14.15;79.57
4590;BME280;2307;48.448;9.216;2024-03-02T11:43:25;94138.41;;;14.20;79.31
4590;BME280;2307;48.448;9.216;2024-03-02T11:45:56;94136.88;;;14.32;80.83
4590;BME280;2307;48.448;9.216;2024-03-02T11:48:24;94139.03;;;14.49;80.27
4590;BME280;2307;48.448;9.216;2024-03-02T11:50:50;94135.31;;;14.50;80.58
4590;BME280;2307;48.448;9.216;2024-03-02T11:53:17;94139.25;;;14.53;76.84
4590;BME280;2307;48.448;9.216;2024-03-02T11:55:44;94131.22;;;14.58;74.77
4590;BME280;2307;48.448;9.216;2024-03-02T11:58:13;94125.09;;;14.57;74.98
4590;BME280;2307;48.448;9.216;2024-03-02T12:00:42;94125.81;;;14.63;69.73
4590;BME280;2307;48.448;9.216;2024-03-02T12:03:09;94108.63;;;14.74;74.04
4590;BME280;2307;48.448;9.216;2024-03-02T12:05:39;94114.16;;;14.77;72.28
4590;BME280;2307;48.448;9.216;2024-03-02T12:08:06;94111.50;;;14.91;71.45
4590;BME280;2307;48.448;9.216;2024-03-02T12:10:33;94106.31;;;15.00;66.11
4590;BME280;2307;48.448;9.216;2024-03-02T12:13:00;94101.25;;;14.84;64.39
4590;BME280;2307;48.448;9.216;2024-03-02T12:15:27;94111.28;;;14.87;63.55
4590;BME280;2307;48.448;9.216;2024-03-02T12:17:54;94102.16;;;14.94;61.21
4590;BME280;2307;48.448;9.216;2024-03-02T12:20:20;94104.03;;;15.07;62.78
4590;BME280;2307;48.448;9.216;2024-03-02T12:22:50;94096.47;;;15.14;63.70
4590;BME280;2307;48.448;9.216;2024-03-02T12:25:17;94098.25;;;15.18;62.21
4590;BME280;2307;48.448;9.216;2024-03-02T12:27:43;94101.13;;;15.35;60.01
4590;BME280;2307;48.448;9.216;2024-03-02T12:30:11;94090.59;;;15.44;60.40
4590;BME280;2307;48.448;9.216;2024-03-02T12:32:39;94103.31;;;15.47;59.60
4590;BME280;2307;48.448;9.216;2024-03-02T12:35:05;94087.84;;;15.49;57.33
4590;BME280;2307;48.448;9.216;2024-03-02T12:37:32;94083.47;;;15.67;58.34
4590;BME280;2307;48.448;9.216;2024-03-02T12:40:00;94082.72;;;15.66;59.46
4590;BME280;2307;48.448;9.216;2024-03-02T12:42:26;94087.03;;;15.76;58.04
4590;BME280;2307;48.448;9.216;2024-03-02T12:44:52;94079.81;;;15.76;58.74
4590;BME280;2307;48.448;9.216;2024-03-02T12:47:20;94079.00;;;15.89;56.22
4590;BME280;2307;48.448;9.216;2024-03-02T12:49:46;94071.63;;;15.86;54.72
4590;BME280;2307;48.448;9.216;2024-03-02T12:52:13;94070.06;;;15.85;55.21
4590;BME280;2307;48.448;9.216;2024-03-02T12:54:39;94069.47;;;15.88;57.09
4590;BME280;2307;48.448;9.216;2024-03-02T12:57:07;94062.69;;;16.05;56.82
4590;BME280;2307;48.448;9.216;2024-03-02T12:59:33;94073.72;;;16.12;56.47
4590;BME280;2307;48.448;9.216;2024-03-02T13:02:00;94066.91;;;16.41;59.46
4590;BME280;2307;48.448;9.216;2024-03-02T13:04:27;94059.63;;;16.33;52.67
4590;BME280;2307;48.448;9.216;2024-03-02T13:06:54;94064.28;;;16.28;55.50
4590;BME280;2307;48.448;9.216;2024-03-02T13:09:22;94054.91;;;16.30;55.02
4590;BME280;2307;48.448;9.216;2024-03-02T13:11:49;94060.19;;;16.44;56.48
4590;BME280;2307;48.448;9.216;2024-03-02T13:14:17;94066.66;;;16.52;55.26
4590;BME280;2307;48.448;9.216;2024-03-02T13:16:44;94065.25;;;16.68;55.79
4590;BME280;2307;48.448;9.216;2024-03-02T13:19:12;94072.31;;;16.72;52.33
4590;BME280;2307;48.448;9.216;2024-03-02T13:21:38;94062.78;;;16.80;51.11
4590;BME280;2307;48.448;9.216;2024-03-02T13:24:05;94061.59;;;16.94;49.76